Climatologie pour Saint-Brevin les Pins
Jour • Résumé pour janvier 20, 2017 Système :  Métrique    Anglais   Mixte
« - 1 jour
+ 1 jour »
Jour Semaine Mois Année Personnalisé
  Maximum : Minimum : Moyenne :
Température sous abri : -17.8 °C -21.3 °C -19.3 °C
Point de rosée : -17.8 °C -21.8 °C -20.3 °C
Humidité : Humidity % 73 % 88 %
Vitesse du vent : 0 km/h 0 km/h 7.6 km/h
Rafale : 0 km/h - -
Direction :- - ENE
Pression : 0 hPa 34750.5 hPa -
Précipitations : 0 mm    
Historical Graphs
 
 
Tableau de données pour janvier 20, 2017
Heure Tempé Pt rosée Pression Vent Vitesse Rafale Humidité Taux pluie (/hr) Soleil
-17.8 °C -17.8 °C 0 hPa Calm     Humidity % 0 mm SolarRadiationWatts/m^2 W/m2 Conditions
00:00 -20.1 °C -20.8 °C 34899.5 hPa East 10.3 km/h 15.6 km/h 90 % 0 mm 0 W/m2
00:10 -20.1 °C -20.9 °C 34899.5 hPa ENE 5.1 km/h 18.2 km/h 90 % 0 mm 0 W/m2
00:15 -20.1 °C -20.8 °C 34899.5 hPa ENE 5.1 km/h 18.2 km/h 90 % 0 mm 0 W/m2
00:20 -20.1 °C -20.8 °C 34899.5 hPa East 5.1 km/h 12.9 km/h 91 % 0 mm 0 W/m2
00:25 -20.1 °C -20.8 °C 34889.3 hPa East 15.6 km/h 18.2 km/h 90 % 0 mm 0 W/m2
00:30 -20.1 °C -20.7 °C 34889.3 hPa ENE 2.6 km/h 18.2 km/h 91 % 0 mm 0 W/m2
00:35 -20 °C -20.7 °C 34889.3 hPa ENE 7.7 km/h 18.2 km/h 91 % 0 mm 0 W/m2
00:40 -20 °C -20.7 °C 34889.3 hPa ENE 2.6 km/h 18.2 km/h 91 % 0 mm 0 W/m2
00:45 -19.9 °C -20.7 °C 34889.3 hPa ENE 5.1 km/h 18.2 km/h 91 % 0 mm 0 W/m2
00:50 -20 °C -20.8 °C 34889.3 hPa East 2.6 km/h 15.6 km/h 90 % 0 mm 0 W/m2
00:55 -20.1 °C -20.7 °C 34889.3 hPa ENE 2.6 km/h 15.6 km/h 91 % 0 mm 0 W/m2
01:00 -20.2 °C -20.8 °C 34889.3 hPa ENE 5.1 km/h 15.6 km/h 91 % 0 mm 0 W/m2
01:05 -20.2 °C -20.8 °C 34875.8 hPa NE 10.3 km/h 18.2 km/h 91 % 0 mm 0 W/m2
01:10 -20.2 °C -20.8 °C 34875.8 hPa ENE 10.3 km/h 18.2 km/h 91 % 0 mm 0 W/m2
01:15 -20.2 °C -20.9 °C 34875.8 hPa ENE 7.7 km/h 18.2 km/h 91 % 0 mm 0 W/m2
01:20 -20.2 °C -20.9 °C 34875.8 hPa ENE 5.1 km/h 18.2 km/h 91 % 0 mm 0 W/m2
01:25 -20.2 °C -20.8 °C 34875.8 hPa ENE 5.1 km/h 12.9 km/h 92 % 0 mm 0 W/m2
01:30 -20.3 °C -20.9 °C 34875.8 hPa East 2.6 km/h 15.6 km/h 91 % 0 mm 0 W/m2
01:35 -20.3 °C -21 °C 34875.8 hPa ENE 12.9 km/h 15.6 km/h 91 % 0 mm 0 W/m2
01:40 -20.3 °C -20.9 °C 34865.6 hPa ENE 5.1 km/h 12.9 km/h 92 % 0 mm 0 W/m2
01:45 -20.2 °C -20.8 °C 34865.6 hPa ENE 7.7 km/h 12.9 km/h 92 % 0 mm 0 W/m2
01:50 -20.2 °C -20.9 °C 34865.6 hPa ENE 5.1 km/h 12.9 km/h 91 % 0 mm 0 W/m2
01:55 -20.3 °C -20.9 °C 34865.6 hPa ENE 2.6 km/h 15.6 km/h 92 % 0 mm 0 W/m2
02:00 -20.4 °C -21.1 °C 34865.6 hPa ENE 2.6 km/h 15.6 km/h 91 % 0 mm 0 W/m2
02:05 -20.3 °C -20.9 °C 34865.6 hPa ENE 2.6 km/h 12.9 km/h 92 % 0 mm 0 W/m2
02:10 -20.3 °C -20.9 °C 34865.6 hPa East 5.1 km/h 12.9 km/h 92 % 0 mm 0 W/m2
02:15 -20.3 °C -20.9 °C 34865.6 hPa East 5.1 km/h 12.9 km/h 92 % 0 mm 0 W/m2
02:20 -20.4 °C -21.2 °C 34865.6 hPa ENE 10.3 km/h 10.3 km/h 91 % 0 mm 0 W/m2
02:25 -20.6 °C -21.2 °C 34865.6 hPa East 2.6 km/h 15.6 km/h 92 % 0 mm 0 W/m2
02:30 -20.7 °C -21.3 °C 34865.6 hPa ENE 5.1 km/h 15.6 km/h 92 % 0 mm 0 W/m2
02:35 -20.6 °C -21.2 °C 34865.6 hPa East 5.1 km/h 12.9 km/h 92 % 0 mm 0 W/m2
02:40 -20.5 °C -21.1 °C 34865.6 hPa ENE 5.1 km/h 12.9 km/h 92 % 0 mm 0 W/m2
02:45 -20.6 °C -21.2 °C 34865.6 hPa ENE 2.6 km/h 10.3 km/h 92 % 0 mm 0 W/m2
02:50 -20.5 °C -21.1 °C 34865.6 hPa ENE 7.7 km/h 10.3 km/h 92 % 0 mm 0 W/m2
02:55 -20.5 °C -21.1 °C 34865.6 hPa ENE 7.7 km/h 15.6 km/h 92 % 0 mm 0 W/m2
03:00 -20.5 °C -21.1 °C 34865.6 hPa ENE 5.1 km/h 15.6 km/h 92 % 0 mm 0 W/m2
03:05 -20.5 °C -21.1 °C 34865.6 hPa East 7.7 km/h 12.9 km/h 92 % 0 mm 0 W/m2
03:10 -20.4 °C -21.1 °C 34865.6 hPa ENE 7.7 km/h 12.9 km/h 92 % 0 mm 0 W/m2
03:15 -20.5 °C -21.1 °C 34865.6 hPa ENE 5.1 km/h 10.3 km/h 92 % 0 mm 0 W/m2
03:20 -20.4 °C -21.1 °C 34865.6 hPa East 5.1 km/h 10.3 km/h 92 % 0 mm 0 W/m2
03:25 -20.4 °C -21.1 °C 34865.6 hPa ENE 5.1 km/h 10.3 km/h 92 % 0 mm 0 W/m2
03:30 -20.5 °C -21.1 °C 34865.6 hPa Calm   10.3 km/h 92 % 0 mm 0 W/m2
03:35 -20.7 °C -21.3 °C 34865.6 hPa Calm   10.3 km/h 92 % 0 mm 0 W/m2
03:40 -20.6 °C -21.2 °C 34865.6 hPa ENE 5.1 km/h 10.3 km/h 92 % 0 mm 0 W/m2
03:45 -20.6 °C -21.2 °C 34865.6 hPa ENE 5.1 km/h 10.3 km/h 92 % 0 mm 0 W/m2
03:50 -20.6 °C -21.2 °C 34865.6 hPa ENE 7.7 km/h 10.3 km/h 92 % 0 mm 0 W/m2
03:55 -20.7 °C -21.3 °C 34865.6 hPa ENE 7.7 km/h 10.3 km/h 92 % 0 mm 0 W/m2
04:00 -20.8 °C -21.4 °C 34865.6 hPa ENE 2.6 km/h 12.9 km/h 92 % 0 mm 0 W/m2
04:05 -20.8 °C -21.3 °C 34852.1 hPa ENE 7.7 km/h 18.2 km/h 93 % 0 mm 0 W/m2
04:10 -20.7 °C -21.3 °C 34852.1 hPa ENE 2.6 km/h 18.2 km/h 93 % 0 mm 0 W/m2
04:15 -20.7 °C -21.2 °C 34852.1 hPa ENE 7.7 km/h 12.9 km/h 93 % 0 mm 0 W/m2
04:20 -20.6 °C -21.2 °C 34852.1 hPa ENE 5.1 km/h 10.3 km/h 93 % 0 mm 0 W/m2
04:25 -20.7 °C -21.2 °C 34852.1 hPa ENE 5.1 km/h 7.7 km/h 93 % 0 mm 0 W/m2
04:30 -20.6 °C -21.2 °C 34852.1 hPa ENE 2.6 km/h 7.7 km/h 93 % 0 mm 0 W/m2
04:35 -20.7 °C -21.2 °C 34852.1 hPa Calm   10.3 km/h 93 % 0 mm 0 W/m2
04:40 -20.7 °C -21.2 °C 34852.1 hPa East 5.1 km/h 10.3 km/h 93 % 0 mm 0 W/m2
04:45 -20.7 °C -21.3 °C 34852.1 hPa East 2.6 km/h 10.3 km/h 92 % 0 mm 0 W/m2
04:50 -20.9 °C -21.6 °C 34852.1 hPa East 5.1 km/h 7.7 km/h 92 % 0 mm 0 W/m2
04:55 -21 °C -21.6 °C 34852.1 hPa Calm   7.7 km/h 92 % 0 mm 0 W/m2
05:00 -21.2 °C -21.8 °C 34852.1 hPa Calm   7.7 km/h 92 % 0 mm 0 W/m2
05:05 -21.2 °C -21.8 °C 34852.1 hPa Calm   5.1 km/h 93 % 0 mm 0 W/m2
05:10 -21.3 °C -21.8 °C 34852.1 hPa NNE 5.1 km/h 10.3 km/h 93 % 0 mm 0 W/m2
05:15 -21.3 °C -21.8 °C 34852.1 hPa NNE 5.1 km/h 10.3 km/h 93 % 0 mm 0 W/m2
05:20 -21.3 °C -21.7 °C 34852.1 hPa NE 7.7 km/h 10.3 km/h 94 % 0 mm 0 W/m2
05:25 -21.2 °C -21.6 °C 34852.1 hPa NE 10.3 km/h 12.9 km/h 94 % 0 mm 0 W/m2
05:30 -21 °C -21.4 °C 34852.1 hPa Calm   15.6 km/h 94 % 0 mm 0 W/m2
05:35 -20.9 °C -21.4 °C 34841.9 hPa ENE 2.6 km/h 15.6 km/h 94 % 0 mm 0 W/m2
05:40 -21.1 °C -21.6 °C 34841.9 hPa ENE 7.7 km/h 12.9 km/h 93 % 0 mm 0 W/m2
05:45 -21 °C -21.4 °C 34841.9 hPa ENE 2.6 km/h 18.2 km/h 94 % 0 mm 0 W/m2
05:50 -21.1 °C -21.6 °C 34841.9 hPa NE 7.7 km/h 18.2 km/h 93 % 0 mm 0 W/m2
05:55 -21 °C -21.4 °C 34841.9 hPa East 5.1 km/h 18.2 km/h 94 % 0 mm 0 W/m2
06:00 -20.8 °C -21.3 °C 34841.9 hPa ENE 2.6 km/h 20.8 km/h 94 % 0 mm 0 W/m2
06:05 -20.8 °C -21.3 °C 34841.9 hPa NE 7.7 km/h 20.8 km/h 94 % 0 mm 0 W/m2
06:10 -20.9 °C -21.5 °C 34841.9 hPa NE 2.6 km/h 12.9 km/h 93 % 0 mm 0 W/m2
06:15 -21 °C -21.4 °C 34841.9 hPa NE 2.6 km/h 12.9 km/h 94 % 0 mm 0 W/m2
06:20 -20.9 °C -21.4 °C 34841.9 hPa NNE 7.7 km/h 12.9 km/h 94 % 0 mm 0 W/m2
06:25 -21 °C -21.4 °C 34841.9 hPa ENE 2.6 km/h 12.9 km/h 94 % 0 mm 0 W/m2
06:30 -20.9 °C -21.4 °C 34841.9 hPa NE 7.7 km/h 12.9 km/h 94 % 0 mm 0 W/m2
06:35 -20.9 °C -21.3 °C 34841.9 hPa ENE 5.1 km/h 12.9 km/h 94 % 0 mm 0 W/m2
06:40 -20.8 °C -21.3 °C 34841.9 hPa ENE 7.7 km/h 20.8 km/h 94 % 0 mm 0 W/m2
06:45 -20.8 °C -21.2 °C 34841.9 hPa ENE 12.9 km/h 20.8 km/h 94 % 0 mm 0 W/m2
06:50 -20.7 °C -21.1 °C 34841.9 hPa ENE 5.1 km/h 20.8 km/h 94 % 0 mm 0 W/m2
06:55 -20.7 °C -21.1 °C 34841.9 hPa ENE 5.1 km/h 20.8 km/h 94 % 0 mm 0 W/m2
07:00 -20.7 °C -21.2 °C 34841.9 hPa NE 10.3 km/h 20.8 km/h 93 % 0 mm 0 W/m2
07:05 -20.7 °C -21.3 °C 34841.9 hPa ENE 2.6 km/h 18.2 km/h 93 % 0 mm 0 W/m2
07:10 -20.8 °C -21.3 °C 34841.9 hPa NE 7.7 km/h 18.2 km/h 93 % 0 mm 0 W/m2
07:15 -20.8 °C -21.4 °C 34841.9 hPa NE 5.1 km/h 12.9 km/h 93 % 0 mm 0 W/m2
07:20 -20.9 °C -21.4 °C 34841.9 hPa ENE 2.6 km/h 12.9 km/h 93 % 0 mm 0 W/m2
07:25 -20.9 °C -21.4 °C 34841.9 hPa ENE 5.1 km/h 12.9 km/h 93 % 0 mm 0 W/m2
07:30 -20.9 °C -21.4 °C 34841.9 hPa ENE 5.1 km/h 10.3 km/h 93 % 0 mm 0 W/m2
07:35 -20.9 °C -21.5 °C 34841.9 hPa ENE 2.6 km/h 10.3 km/h 93 % 0 mm 0 W/m2
07:40 -20.9 °C -21.4 °C 34841.9 hPa ENE 12.9 km/h 12.9 km/h 94 % 0 mm 0 W/m2
07:45 -20.9 °C -21.5 °C 34841.9 hPa ENE 7.7 km/h 12.9 km/h 93 % 0 mm 0 W/m2
07:50 -20.9 °C -21.4 °C 34841.9 hPa Calm   12.9 km/h 94 % 0 mm 0 W/m2
07:55 -20.9 °C -21.3 °C 34841.9 hPa ENE 5.1 km/h 12.9 km/h 94 % 0 mm 0 W/m2
08:00 -20.8 °C -21.3 °C 34841.9 hPa ENE 7.7 km/h 18.2 km/h 94 % 0 mm 0 W/m2
08:05 -20.8 °C -21.2 °C 34841.9 hPa ENE 7.7 km/h 20.8 km/h 94 % 0 mm 0 W/m2
08:10 -20.7 °C -21.2 °C 34841.9 hPa ENE 5.1 km/h 20.8 km/h 94 % 0 mm 0 W/m2
08:15 -20.8 °C -21.2 °C 34841.9 hPa Calm   15.6 km/h 94 % 0 mm 0 W/m2
08:20 -20.8 °C -21.2 °C 34841.9 hPa East 2.6 km/h 15.6 km/h 94 % 0 mm 0 W/m2
08:25 -20.9 °C -21.4 °C 34841.9 hPa ENE 7.7 km/h 15.6 km/h 93 % 0 mm 0 W/m2
08:30 -20.9 °C -21.3 °C 34841.9 hPa ENE 5.1 km/h 15.6 km/h 94 % 0 mm 0 W/m2
08:35 -20.9 °C -21.3 °C 34841.9 hPa ENE 2.6 km/h 15.6 km/h 94 % 0 mm 0 W/m2
08:40 -20.8 °C -21.3 °C 34841.9 hPa ENE 7.7 km/h 18.2 km/h 94 % 0 mm 0 W/m2
08:45 -20.8 °C -21.2 °C 34831.8 hPa East 7.7 km/h 18.2 km/h 94 % 0 mm 0 W/m2
08:50 -20.7 °C -21.2 °C 34831.8 hPa East 5.1 km/h 18.2 km/h 94 % 0 mm 0 W/m2
08:55 -20.8 °C -21.2 °C 34831.8 hPa ENE 7.7 km/h 18.2 km/h 94 % 0 mm 5 W/m2
09:00 -20.8 °C -21.3 °C 34831.8 hPa ENE 5.1 km/h 18.2 km/h 94 % 0 mm 9 W/m2
09:05 -20.8 °C -21.3 °C 34841.9 hPa East 5.1 km/h 18.2 km/h 94 % 0 mm 11 W/m2
09:10 -20.8 °C -21.2 °C 34841.9 hPa East 12.9 km/h 18.2 km/h 94 % 0 mm 14 W/m2
09:15 -20.7 °C -21.2 °C 34841.9 hPa East 5.1 km/h 18.2 km/h 94 % 0 mm 16 W/m2
09:20 -20.7 °C -21.2 °C 34841.9 hPa ENE 7.7 km/h 18.2 km/h 94 % 0 mm 19 W/m2
09:25 -20.7 °C -21.1 °C 34841.9 hPa ENE 10.3 km/h 18.2 km/h 94 % 0 mm 23 W/m2
09:30 -20.6 °C -21.1 °C 34841.9 hPa ENE 7.7 km/h 20.8 km/h 94 % 0 mm 25 W/m2
09:35 -20.6 °C -21.1 °C 34841.9 hPa ENE 5.1 km/h 20.8 km/h 94 % 0 mm 26 W/m2
09:40 -20.5 °C -21.1 °C 34841.9 hPa ENE 2.6 km/h 20.8 km/h 93 % 0 mm 30 W/m2
09:45 -20.4 °C -21 °C 34841.9 hPa ENE 2.6 km/h 20.8 km/h 93 % 0 mm 32 W/m2
09:50 -20.4 °C -20.9 °C 34841.9 hPa East 12.9 km/h 18.2 km/h 93 % 0 mm 33 W/m2
09:55 -20.4 °C -20.9 °C 34841.9 hPa Calm   18.2 km/h 93 % 0 mm 37 W/m2
10:00 -20.3 °C -20.8 °C 34852.1 hPa ENE 5.1 km/h 20.8 km/h 93 % 0 mm 39 W/m2
10:05 -20.2 °C -20.8 °C 34841.9 hPa NE 10.3 km/h 23.3 km/h 93 % 0 mm 40 W/m2
10:10 -20.1 °C -20.7 °C 34841.9 hPa NE 5.1 km/h 23.3 km/h 93 % 0 mm 42 W/m2
10:15 -20.1 °C -20.6 °C 34841.9 hPa ENE 20.8 km/h 23.3 km/h 93 % 0 mm 44 W/m2
10:20 -19.9 °C -20.5 °C 34841.9 hPa ENE 7.7 km/h 23.3 km/h 93 % 0 mm 44 W/m2
10:25 -19.9 °C -20.4 °C 34841.9 hPa ENE 20.8 km/h 23.3 km/h 93 % 0 mm 51 W/m2
10:30 -19.8 °C -20.4 °C 34841.9 hPa East 12.9 km/h 28.5 km/h 92 % 0 mm 114 W/m2
10:35 -19.8 °C -20.4 °C 34841.9 hPa ENE 12.9 km/h 28.5 km/h 92 % 0 mm 123 W/m2
10:40 -19.7 °C -20.3 °C 34841.9 hPa East 23.3 km/h 23.3 km/h 91 % 0 mm 139 W/m2
10:45 -19.6 °C -20.2 °C 34841.9 hPa ENE 12.9 km/h 23.3 km/h 91 % 0 mm 158 W/m2
10:55 -19.4 °C -20.2 °C 34841.9 hPa ENE 10.3 km/h 28.5 km/h 90 % 0 mm 186 W/m2
11:00 -19.3 °C -20.1 °C 34831.8 hPa East 12.9 km/h 28.5 km/h 90 % 0 mm 200 W/m2
11:05 -19.2 °C -20 °C 34841.9 hPa East 10.3 km/h 31.1 km/h 90 % 0 mm 204 W/m2
11:10 -19.1 °C -20 °C 34841.9 hPa East 12.9 km/h 31.1 km/h 89 % 0 mm 225 W/m2
11:15 -19.1 °C -20 °C 34841.9 hPa East 15.6 km/h 25.9 km/h 89 % 0 mm 239 W/m2
11:20 -19.1 °C -20 °C 34841.9 hPa ENE 10.3 km/h 25.9 km/h 88 % 0 mm 250 W/m2
11:25 -19 °C -19.9 °C 34841.9 hPa East 20.8 km/h 25.9 km/h 88 % 0 mm 264 W/m2
11:30 -18.9 °C -19.8 °C 34841.9 hPa East 25.9 km/h 25.9 km/h 88 % 0 mm 274 W/m2
11:35 -18.8 °C -19.8 °C 34841.9 hPa East 20.8 km/h 25.9 km/h 87 % 0 mm 281 W/m2
11:40 -18.7 °C -19.7 °C 34841.9 hPa East 12.9 km/h 28.5 km/h 87 % 0 mm 294 W/m2
11:45 -18.7 °C -19.8 °C 34831.8 hPa ENE 18.2 km/h 28.5 km/h 86 % 0 mm 308 W/m2
11:50 -18.6 °C -19.7 °C 34831.8 hPa SE 12.9 km/h 25.9 km/h 86 % 0 mm 315 W/m2
11:55 -18.4 °C -19.7 °C 34831.8 hPa ENE 10.3 km/h 23.3 km/h 85 % 0 mm 309 W/m2
12:00 -18.5 °C -19.8 °C 34831.8 hPa ESE 18.2 km/h 25.9 km/h 84 % 0 mm 304 W/m2
12:05 -18.4 °C -19.7 °C 34831.8 hPa East 12.9 km/h 25.9 km/h 84 % 0 mm 308 W/m2
12:10 -18.3 °C -19.6 °C 34831.8 hPa ENE 12.9 km/h 23.3 km/h 85 % 0 mm 315 W/m2
12:15 -18.3 °C -19.6 °C 34818.2 hPa East 12.9 km/h 25.9 km/h 84 % 0 mm 316 W/m2
12:20 -18.1 °C -19.4 °C 34818.2 hPa East 23.3 km/h 25.9 km/h 84 % 0 mm 315 W/m2
12:25 -18.1 °C -19.4 °C 34818.2 hPa ENE 10.3 km/h 23.3 km/h 83 % 0 mm 322 W/m2
12:30 -17.9 °C -19.4 °C 34818.2 hPa SE 18.2 km/h 23.3 km/h 82 % 0 mm 325 W/m2
12:35 -17.9 °C -19.4 °C 34808.1 hPa East 25.9 km/h 25.9 km/h 82 % 0 mm 334 W/m2
12:40 -17.9 °C -19.4 °C 34808.1 hPa East 20.8 km/h 25.9 km/h 81 % 0 mm 338 W/m2
12:45 -17.7 °C -19.3 °C 34808.1 hPa East 10.3 km/h 25.9 km/h 81 % 0 mm 343 W/m2
12:50 -17.5 °C -19.2 °C 34808.1 hPa ENE 23.3 km/h 23.3 km/h 80 % 0 mm 339 W/m2
12:55 -17.5 °C -19.2 °C 34808.1 hPa ENE 12.9 km/h 25.9 km/h 80 % 0 mm 341 W/m2
13:00 -17.5 °C -19.2 °C 34808.1 hPa ENE 18.2 km/h 28.5 km/h 80 % 0 mm 346 W/m2
13:05 -17.4 °C -19.3 °C 34808.1 hPa East 18.2 km/h 28.5 km/h 79 % 0 mm 346 W/m2
13:10 -17.5 °C -19.3 °C 34808.1 hPa ENE 20.8 km/h 28.5 km/h 79 % 0 mm 346 W/m2
13:15 -17.4 °C -19.1 °C 34797.9 hPa East 15.6 km/h 33.6 km/h 80 % 0 mm 346 W/m2
13:20 -17.4 °C -19.3 °C 34797.9 hPa ENE 12.9 km/h 33.6 km/h 78 % 0 mm 343 W/m2
13:25 -17.3 °C -19.2 °C 34797.9 hPa NE 18.2 km/h 25.9 km/h 78 % 0 mm 346 W/m2
13:30 -17.3 °C -19.2 °C 34797.9 hPa ENE 12.9 km/h 25.9 km/h 77 % 0 mm 345 W/m2
13:35 -17.2 °C -19.2 °C 34797.9 hPa East 15.6 km/h 25.9 km/h 77 % 0 mm 346 W/m2
13:40 -17.1 °C -19.1 °C 34784.4 hPa East 23.3 km/h 25.9 km/h 77 % 0 mm 343 W/m2
13:45 -17 °C -19 °C 34784.4 hPa ESE 10.3 km/h 25.9 km/h 77 % 0 mm 341 W/m2
13:50 -16.8 °C -18.8 °C 34784.4 hPa NE 5.1 km/h 28.5 km/h 77 % 0 mm 338 W/m2
13:55 -16.8 °C -18.9 °C 34784.4 hPa ENE 18.2 km/h 28.5 km/h 76 % 0 mm 339 W/m2
14:00 -16.8 °C -19 °C 34784.4 hPa ESE 10.3 km/h 23.3 km/h 75 % 0 mm 336 W/m2
14:05 -16.8 °C -18.9 °C 34774.2 hPa ESE 12.9 km/h 23.3 km/h 76 % 0 mm 332 W/m2
14:10 -16.6 °C -18.8 °C 34774.2 hPa ENE 10.3 km/h 23.3 km/h 75 % 0 mm 329 W/m2
14:15 -16.7 °C -18.9 °C 34774.2 hPa East 20.8 km/h 25.9 km/h 75 % 0 mm 327 W/m2
14:20 -16.5 °C -18.8 °C 34774.2 hPa East 25.9 km/h 25.9 km/h 75 % 0 mm 316 W/m2
14:25 -16.7 °C -19 °C 34774.2 hPa East 18.2 km/h 31.1 km/h 74 % 0 mm 318 W/m2
14:30 -16.6 °C -18.8 °C 34774.2 hPa ESE 5.1 km/h 31.1 km/h 75 % 0 mm 308 W/m2
14:40 -16.5 °C -18.8 °C 34774.2 hPa ENE 7.7 km/h 23.3 km/h 74 % 0 mm 297 W/m2
14:45 -16.3 °C -18.7 °C 34774.2 hPa ENE 12.9 km/h 28.5 km/h 73 % 0 mm 292 W/m2
14:50 -16.3 °C -18.6 °C 34774.2 hPa ENE 7.7 km/h 28.5 km/h 74 % 0 mm 287 W/m2
14:55 -16.4 °C -18.8 °C 34774.2 hPa ENE 12.9 km/h 25.9 km/h 73 % 0 mm 279 W/m2
15:00 -16.4 °C -18.7 °C 34774.2 hPa NNE 2.6 km/h 25.9 km/h 74 % 0 mm 272 W/m2
15:05 -16.3 °C -18.8 °C 34760.7 hPa ENE 20.8 km/h 28.5 km/h 73 % 0 mm 269 W/m2
15:10 -16.3 °C -18.7 °C 34760.7 hPa ENE 25.9 km/h 31.1 km/h 74 % 0 mm 258 W/m2
15:15 -16.3 °C -18.8 °C 34760.7 hPa East 18.2 km/h 31.1 km/h 73 % 0 mm 246 W/m2
15:20 -16.4 °C -18.8 °C 34760.7 hPa ENE 10.3 km/h 25.9 km/h 74 % 0 mm 239 W/m2
15:25 -16.4 °C -18.8 °C 34760.7 hPa ESE 12.9 km/h 25.9 km/h 73 % 0 mm 234 W/m2
15:30 -16.4 °C -18.7 °C 34760.7 hPa ESE 12.9 km/h 25.9 km/h 74 % 0 mm 225 W/m2
15:35 -16.3 °C -18.7 °C 34760.7 hPa East 12.9 km/h 25.9 km/h 73 % 0 mm 220 W/m2
15:40 -16.3 °C -18.8 °C 34760.7 hPa ENE 10.3 km/h 23.3 km/h 73 % 0 mm 209 W/m2
15:45 -16.3 °C -18.7 °C 34760.7 hPa ENE 7.7 km/h 23.3 km/h 73 % 0 mm 200 W/m2
15:50 -16.3 °C -18.8 °C 34760.7 hPa ENE 12.9 km/h 23.3 km/h 73 % 0 mm 188 W/m2
15:55 -16.4 °C -18.7 °C 34760.7 hPa East 12.9 km/h 23.3 km/h 74 % 0 mm 181 W/m2
16:00 -16.4 °C -18.8 °C 34760.7 hPa NE 7.7 km/h 20.8 km/h 74 % 0 mm 167 W/m2
16:05 -16.5 °C -18.8 °C 34760.7 hPa ENE 10.3 km/h 25.9 km/h 74 % 0 mm 160 W/m2
16:10 -16.4 °C -18.7 °C 34760.7 hPa NE 2.6 km/h 25.9 km/h 74 % 0 mm 149 W/m2
16:15 -16.4 °C -18.7 °C 34750.5 hPa ENE 7.7 km/h 25.9 km/h 74 % 0 mm 139 W/m2
16:45 -16.8 °C -18.9 °C 34760.7 hPa East 10.3 km/h 28.5 km/h 76 % 0 mm 42 W/m2
16:50 -16.9 °C -18.9 °C 34760.7 hPa ESE 12.9 km/h 28.5 km/h 77 % 0 mm 39 W/m2
16:55 -17 °C -18.9 °C 34760.7 hPa East 18.2 km/h 25.9 km/h 78 % 0 mm 37 W/m2
17:00 -17.1 °C -18.9 °C 34760.7 hPa ENE 7.7 km/h 23.3 km/h 78 % 0 mm 33 W/m2
17:05 -17.1 °C -19 °C 34760.7 hPa East 7.7 km/h 23.3 km/h 78 % 0 mm 32 W/m2
17:10 -17.1 °C -19 °C 34760.7 hPa East 5.1 km/h 25.9 km/h 78 % 0 mm 28 W/m2
17:15 -17.2 °C -19 °C 34774.2 hPa ENE 2.6 km/h 25.9 km/h 79 % 0 mm 25 W/m2
17:20 -17.3 °C -19.1 °C 34774.2 hPa East 7.7 km/h 18.2 km/h 79 % 0 mm 23 W/m2
17:25 -17.3 °C -19.1 °C 34774.2 hPa East 7.7 km/h 23.3 km/h 80 % 0 mm 19 W/m2
17:30 -17.4 °C -19.1 °C 34774.2 hPa ENE 10.3 km/h 23.3 km/h 80 % 0 mm 16 W/m2
17:35 -17.6 °C -19.1 °C 34774.2 hPa East 2.6 km/h 15.6 km/h 81 % 0 mm 12 W/m2
17:45 -17.7 °C -19.3 °C 34774.2 hPa ENE 7.7 km/h 20.8 km/h 81 % 0 mm 7 W/m2
17:50 -17.8 °C -19.3 °C 34774.2 hPa ENE 7.7 km/h 12.9 km/h 82 % 0 mm 5 W/m2
17:55 -17.8 °C -19.3 °C 34774.2 hPa East 5.1 km/h 12.9 km/h 83 % 0 mm 0 W/m2
18:00 -17.9 °C -19.3 °C 34774.2 hPa East 2.6 km/h 10.3 km/h 83 % 0 mm 0 W/m2
18:05 -18 °C -19.4 °C 34774.2 hPa East 7.7 km/h 12.9 km/h 83 % 0 mm 0 W/m2
18:10 -18.1 °C -19.5 °C 34774.2 hPa East 2.6 km/h 12.9 km/h 83 % 0 mm 0 W/m2
18:15 -18.2 °C -19.5 °C 34774.2 hPa East 5.1 km/h 12.9 km/h 84 % 0 mm 0 W/m2
18:20 -18.3 °C -19.5 °C 34774.2 hPa East 5.1 km/h 12.9 km/h 85 % 0 mm 0 W/m2
18:25 -18.4 °C -19.7 °C 34774.2 hPa Calm   7.7 km/h 85 % 0 mm 0 W/m2
18:30 -18.7 °C -19.8 °C 34774.2 hPa Calm   7.7 km/h 86 % 0 mm 0 W/m2
18:35 -18.7 °C -19.7 °C 34774.2 hPa East 5.1 km/h 7.7 km/h 87 % 0 mm 0 W/m2
18:40 -18.7 °C -19.7 °C 34774.2 hPa East 2.6 km/h 7.7 km/h 87 % 0 mm 0 W/m2
18:45 -18.8 °C -19.7 °C 34774.2 hPa East 2.6 km/h 7.7 km/h 88 % 0 mm 0 W/m2
18:50 -18.9 °C -19.9 °C 34774.2 hPa East 2.6 km/h 5.1 km/h 88 % 0 mm 0 W/m2
18:55 -18.9 °C -19.8 °C 34774.2 hPa East 2.6 km/h 10.3 km/h 89 % 0 mm 0 W/m2
19:00 -18.8 °C -19.7 °C 34774.2 hPa East 7.7 km/h 10.3 km/h 89 % 0 mm 0 W/m2
19:05 -18.8 °C -19.7 °C 34774.2 hPa East 2.6 km/h 7.7 km/h 89 % 0 mm 0 W/m2
19:10 -18.8 °C -19.7 °C 34774.2 hPa Calm   7.7 km/h 89 % 0 mm 0 W/m2
19:15 -18.7 °C -19.6 °C 34774.2 hPa East 5.1 km/h 7.7 km/h 89 % 0 mm 0 W/m2
19:20 -18.7 °C -19.6 °C 34774.2 hPa East 5.1 km/h 12.9 km/h 89 % 0 mm 0 W/m2
19:25 -18.7 °C -19.6 °C 34774.2 hPa East 5.1 km/h 12.9 km/h 89 % 0 mm 0 W/m2
19:30 -18.7 °C -19.6 °C 34774.2 hPa East 12.9 km/h 12.9 km/h 89 % 0 mm 0 W/m2
19:35 -18.7 °C -19.7 °C 34774.2 hPa ENE 7.7 km/h 15.6 km/h 88 % 0 mm 0 W/m2
19:40 -18.7 °C -19.6 °C 34774.2 hPa East 7.7 km/h 15.6 km/h 89 % 0 mm 0 W/m2
19:45 -18.7 °C -19.6 °C 34774.2 hPa East 5.1 km/h 12.9 km/h 88 % 0 mm 0 W/m2
19:50 -18.7 °C -19.6 °C 34774.2 hPa East 5.1 km/h 12.9 km/h 88 % 0 mm 0 W/m2
19:55 -18.7 °C -19.7 °C 34774.2 hPa East 7.7 km/h 12.9 km/h 88 % 0 mm 0 W/m2
20:00 -18.7 °C -19.6 °C 34774.2 hPa East 5.1 km/h 12.9 km/h 89 % 0 mm 0 W/m2
20:05 -18.7 °C -19.7 °C 34774.2 hPa ENE 7.7 km/h 12.9 km/h 88 % 0 mm 0 W/m2
20:10 -18.8 °C -19.7 °C 34774.2 hPa Calm   12.9 km/h 88 % 0 mm 0 W/m2
20:15 -18.8 °C -19.7 °C 34774.2 hPa ENE 7.7 km/h 12.9 km/h 89 % 0 mm 0 W/m2
20:20 -18.8 °C -19.7 °C 34784.4 hPa ENE 7.7 km/h 12.9 km/h 89 % 0 mm 0 W/m2
20:25 -18.9 °C -19.8 °C 34784.4 hPa ENE 7.7 km/h 12.9 km/h 89 % 0 mm 0 W/m2
20:30 -18.8 °C -19.7 °C 34774.2 hPa ENE 7.7 km/h 12.9 km/h 89 % 0 mm 0 W/m2
20:35 -18.8 °C -19.7 °C 34774.2 hPa East 5.1 km/h 18.2 km/h 89 % 0 mm 0 W/m2
20:40 -18.8 °C -19.7 °C 34774.2 hPa East 7.7 km/h 18.2 km/h 89 % 0 mm 0 W/m2
20:45 -18.8 °C -19.7 °C 34774.2 hPa East 7.7 km/h 18.2 km/h 89 % 0 mm 0 W/m2
20:50 -18.9 °C -19.8 °C 34784.4 hPa Calm   15.6 km/h 89 % 0 mm 0 W/m2
20:55 -18.9 °C -19.8 °C 34784.4 hPa Calm   12.9 km/h 89 % 0 mm 0 W/m2
21:00 -19 °C -19.8 °C 34774.2 hPa East 12.9 km/h 12.9 km/h 89 % 0 mm 0 W/m2
21:05 -19 °C -19.9 °C 34774.2 hPa East 2.6 km/h 12.9 km/h 89 % 0 mm 0 W/m2
21:10 -19.1 °C -19.9 °C 34784.4 hPa East 5.1 km/h 12.9 km/h 89 % 0 mm 0 W/m2
21:15 -19.1 °C -19.9 °C 34784.4 hPa East 7.7 km/h 15.6 km/h 89 % 0 mm 0 W/m2
21:20 -19.1 °C -19.9 °C 34784.4 hPa East 12.9 km/h 15.6 km/h 89 % 0 mm 0 W/m2
21:25 -19.1 °C -19.9 °C 34784.4 hPa ENE 7.7 km/h 15.6 km/h 89 % 0 mm 0 W/m2
21:30 -19.1 °C -20 °C 34784.4 hPa East 5.1 km/h 15.6 km/h 89 % 0 mm 0 W/m2
21:35 -19.1 °C -19.9 °C 34784.4 hPa East 12.9 km/h 12.9 km/h 90 % 0 mm 0 W/m2
21:40 -19.1 °C -19.9 °C 34784.4 hPa ESE 2.6 km/h 12.9 km/h 90 % 0 mm 0 W/m2
21:45 -19.1 °C -20 °C 34774.2 hPa East 7.7 km/h 12.9 km/h 89 % 0 mm 0 W/m2
21:50 -19.1 °C -19.9 °C 34784.4 hPa East 7.7 km/h 12.9 km/h 90 % 0 mm 0 W/m2
21:55 -19.3 °C -20.1 °C 34774.2 hPa East 2.6 km/h 12.9 km/h 89 % 0 mm 0 W/m2
22:00 -19.4 °C -20.2 °C 34774.2 hPa East 5.1 km/h 10.3 km/h 89 % 0 mm 0 W/m2
22:05 -19.4 °C -20.2 °C 34774.2 hPa East 2.6 km/h 7.7 km/h 90 % 0 mm 0 W/m2
22:10 -19.5 °C -20.3 °C 34774.2 hPa ENE 2.6 km/h 12.9 km/h 90 % 0 mm 0 W/m2
22:15 -19.6 °C -20.3 °C 34774.2 hPa ENE 2.6 km/h 12.9 km/h 90 % 0 mm 0 W/m2
22:20 -19.6 °C -20.3 °C 34774.2 hPa Calm   10.3 km/h 91 % 0 mm 0 W/m2
22:25 -19.5 °C -20.2 °C 34774.2 hPa East 5.1 km/h 10.3 km/h 91 % 0 mm 0 W/m2
22:30 -19.4 °C -20.1 °C 34774.2 hPa Calm   10.3 km/h 91 % 0 mm 0 W/m2
22:35 -19.4 °C -20.2 °C 34774.2 hPa ENE 5.1 km/h 10.3 km/h 90 % 0 mm 0 W/m2
22:40 -19.6 °C -20.3 °C 34774.2 hPa ENE 5.1 km/h 7.7 km/h 91 % 0 mm 0 W/m2
22:45 -19.6 °C -20.2 °C 34774.2 hPa ENE 5.1 km/h 10.3 km/h 92 % 0 mm 0 W/m2
22:50 -19.6 °C -20.2 °C 34774.2 hPa ENE 2.6 km/h 10.3 km/h 92 % 0 mm 0 W/m2
22:55 -19.6 °C -20.2 °C 34774.2 hPa Calm   7.7 km/h 92 % 0 mm 0 W/m2
23:00 -19.4 °C -20.1 °C 34774.2 hPa ENE 2.6 km/h 7.7 km/h 92 % 0 mm 0 W/m2
23:05 -19.5 °C -20.1 °C 34774.2 hPa Calm   10.3 km/h 92 % 0 mm 0 W/m2
23:10 -19.5 °C -20.1 °C 34760.7 hPa Calm   10.3 km/h 92 % 0 mm 0 W/m2
23:15 -19.5 °C -20.1 °C 34760.7 hPa ENE 5.1 km/h 10.3 km/h 92 % 0 mm 0 W/m2
23:20 -19.6 °C -20.2 °C 34774.2 hPa ENE 2.6 km/h 10.3 km/h 92 % 0 mm 0 W/m2
23:25 -19.5 °C -20.1 °C 34774.2 hPa Calm   10.3 km/h 92 % 0 mm 0 W/m2
23:30 -19.6 °C -20.2 °C 34774.2 hPa ENE 2.6 km/h 7.7 km/h 92 % 0 mm 0 W/m2
23:35 -19.7 °C -20.3 °C 34760.7 hPa Calm   5.1 km/h 92 % 0 mm 0 W/m2
23:40 -19.8 °C -20.4 °C 34760.7 hPa ENE 2.6 km/h 5.1 km/h 92 % 0 mm 0 W/m2
23:45 -19.9 °C -20.5 °C 34760.7 hPa Calm   2.6 km/h 92 % 0 mm 0 W/m2
23:50 -20 °C -20.6 °C 34774.2 hPa ENE 2.6 km/h 5.1 km/h 92 % 0 mm 0 W/m2
23:55 -20.1 °C -20.7 °C 34760.7 hPa ENE 5.1 km/h 7.7 km/h 92 % 0 mm 0 W/m2
Avec l'autorisation de Weather Underground - 1.75 mb